Reform, Alabama
Current Conditions -  °F | °C
As of 3:53 PM on Friday 24 Oct 2014 (Local Time) from KTCL Reporting Station
Clear Clear  
Wind Chill: 76°   Ceiling: Unl
Heat Index: 76°   Visibility: 10mi
Dew Point: 39°   Wind: 6mph
Humidity: 26%   Direction: 340°NNW
Pressure: 30.05"   Gusts: NA
Location:  33.38°N, 88.02°W
Report Text: KTCL 242053Z 34005KT 10SM CLR 24/04 A3005 RMK AO2 SLP173 T02440039 55008
Loading
Personal Weather Stations






























Interactive Weather Map
Tropical Storm Tracking
New forecast layout! Learn more

10-Day Weather Forecast

Advertisements
Track Severe Weather on mobile